createdAt,value
2022-10-22T00:01:18.387Z,45.63
2022-10-22T00:04:01.102Z,47.03
2022-10-22T00:06:53.072Z,44.03
2022-10-22T00:09:35.382Z,47.75
2022-10-22T00:12:24.126Z,49.88
2022-10-22T00:15:06.384Z,62.08
2022-10-22T00:17:57.011Z,60.92
2022-10-22T00:20:39.367Z,65.55
2022-10-22T00:23:28.011Z,60.78
2022-10-22T00:26:24.936Z,62.30
2022-10-22T00:29:14.096Z,60.35
2022-10-22T00:34:44.107Z,63.55
2022-10-22T00:37:33.103Z,56.35
2022-10-22T00:40:16.365Z,57.42
2022-10-22T00:43:05.362Z,57.13
2022-10-22T00:45:47.383Z,61.63
2022-10-22T00:48:41.156Z,65.47
2022-10-22T00:51:23.375Z,58.13
2022-10-22T00:54:15.089Z,68.50
2022-10-22T00:56:57.359Z,61.90
2022-10-22T00:59:47.073Z,71.13
2022-10-22T01:02:29.368Z,65.82
2022-10-22T01:05:18.119Z,75.97
2022-10-22T01:08:02.475Z,70.47
2022-10-22T01:11:23.120Z,69.85
2022-10-22T01:14:20.343Z,70.88
2022-10-22T01:17:18.166Z,66.68
2022-10-22T01:20:15.354Z,67.63
2022-10-22T01:23:22.998Z,68.95
2022-10-22T01:26:51.929Z,69.68
2022-10-22T01:29:47.990Z,67.78
2022-10-22T01:32:33.362Z,65.47
2022-10-22T01:35:26.015Z,72.93
2022-10-22T01:38:13.431Z,63.83
2022-10-22T01:41:03.005Z,59.90
2022-10-22T01:43:45.359Z,61.35
2022-10-22T01:46:36.100Z,57.92
2022-10-22T01:49:31.001Z,62.03
2022-10-22T01:52:27.070Z,81.90
2022-10-22T01:55:30.111Z,56.00
2022-10-22T01:59:03.807Z,64.28
2022-10-22T02:01:55.070Z,55.05
2022-10-22T02:04:50.005Z,57.60
2022-10-22T02:07:45.082Z,56.22
2022-10-22T02:10:36.083Z,56.38
2022-10-22T02:13:23.585Z,53.13
2022-10-22T02:16:15.981Z,67.32
2022-10-22T02:19:02.674Z,57.65
2022-10-22T02:21:51.089Z,68.22
2022-10-22T02:24:41.078Z,65.80
2022-10-22T02:27:57.963Z,60.65
2022-10-22T02:30:51.073Z,57.20
2022-10-22T02:33:50.343Z,54.37
2022-10-22T02:36:40.045Z,60.78
2022-10-22T02:39:23.429Z,62.17
2022-10-22T02:42:12.062Z,57.40
2022-10-22T02:44:54.369Z,65.13
2022-10-22T02:47:44.065Z,69.45
2022-10-22T02:50:26.354Z,82.22
2022-10-22T02:53:15.095Z,89.93
2022-10-22T02:55:57.328Z,93.47
2022-10-22T02:58:46.073Z,95.47
2022-10-22T03:01:35.092Z,97.55
2022-10-22T03:04:17.290Z,102.22
2022-10-22T03:07:06.074Z,99.65
2022-10-22T03:09:48.287Z,91.45
2022-10-22T03:12:37.062Z,63.42
2022-10-22T03:15:19.982Z,59.70
2022-10-22T03:18:09.081Z,63.03
2022-10-22T03:20:51.307Z,66.03
2022-10-22T03:23:40.968Z,56.17
2022-10-22T03:26:36.905Z,62.08
2022-10-22T03:29:28.051Z,61.72
2022-10-22T03:32:10.432Z,57.83
2022-10-22T03:37:54.062Z,70.97
2022-10-22T03:40:43.081Z,108.63
2022-10-22T03:43:25.336Z,115.10
2022-10-22T03:46:13.979Z,100.30
2022-10-22T03:49:03.383Z,94.07
2022-10-22T03:51:51.402Z,82.45
2022-10-22T03:54:33.166Z,58.95
2022-10-22T03:57:21.385Z,57.60
2022-10-22T04:00:03.047Z,42.55
2022-10-22T04:02:46.230Z,49.03
2022-10-22T04:05:35.069Z,38.78
2022-10-22T04:08:24.408Z,39.45
2022-10-22T04:11:06.080Z,45.67
2022-10-22T04:13:54.336Z,42.10
2022-10-22T04:16:39.075Z,48.70
2022-10-22T04:19:21.279Z,49.88
2022-10-22T04:22:13.042Z,41.92
2022-10-22T04:25:02.080Z,38.88
2022-10-22T04:27:56.920Z,41.88
2022-10-22T04:30:46.057Z,42.78
2022-10-22T04:33:28.383Z,40.15
2022-10-22T04:36:19.135Z,45.60
2022-10-22T04:39:07.377Z,34.45
2022-10-22T04:41:56.062Z,32.75
2022-10-22T04:44:45.072Z,32.50
2022-10-22T04:47:27.262Z,37.70
2022-10-22T04:50:09.001Z,40.53
2022-10-22T04:52:51.335Z,36.40
2022-10-22T04:55:40.081Z,31.05
2022-10-22T04:58:22.534Z,30.85
2022-10-22T05:01:22.079Z,34.53
2022-10-22T05:04:06.346Z,38.03
2022-10-22T05:06:55.048Z,41.58
2022-10-22T05:09:44.050Z,40.42
2022-10-22T05:12:27.149Z,45.30
2022-10-22T05:15:16.086Z,44.05
2022-10-22T05:18:21.769Z,40.45
2022-10-22T05:21:12.048Z,37.28
2022-10-22T05:23:56.503Z,37.10
2022-10-22T05:26:45.067Z,26.67
2022-10-22T05:29:28.377Z,31.67
2022-10-22T05:32:17.042Z,27.17
2022-10-22T05:34:59.357Z,24.30
2022-10-22T05:37:48.172Z,24.00
2022-10-22T05:40:31.554Z,29.83
2022-10-22T05:43:20.107Z,28.77
2022-10-22T05:46:02.962Z,33.17
2022-10-22T05:48:52.114Z,30.15
2022-10-22T05:51:36.489Z,29.73
2022-10-22T05:54:28.071Z,27.25
2022-10-22T05:57:10.514Z,24.50
2022-10-22T05:59:59.064Z,21.58
2022-10-22T06:02:41.801Z,16.90
2022-10-22T06:05:31.089Z,25.55
2022-10-22T06:08:16.785Z,22.13
2022-10-22T06:11:09.037Z,17.77
2022-10-22T06:13:52.503Z,19.23
2022-10-22T06:16:42.103Z,28.60
2022-10-22T06:19:28.135Z,24.05
2022-10-22T06:22:17.057Z,27.25
2022-10-22T06:25:07.124Z,26.52
2022-10-22T06:28:05.970Z,43.38
2022-10-22T06:30:55.478Z,29.90
2022-10-22T06:33:41.065Z,22.75
2022-10-22T06:36:31.611Z,28.48
2022-10-22T06:39:14.059Z,24.45
2022-10-22T06:41:56.413Z,25.73
2022-10-22T06:44:49.058Z,23.42
2022-10-22T06:47:37.353Z,23.55
2022-10-22T06:50:20.063Z,29.85
2022-10-22T06:53:02.283Z,37.13
2022-10-22T06:55:51.059Z,27.65
2022-10-22T06:58:33.246Z,31.80
2022-10-22T07:01:25.164Z,27.73
2022-10-22T07:04:17.063Z,19.42
2022-10-22T07:06:59.343Z,26.10
2022-10-22T07:09:48.061Z,24.08
2022-10-22T07:12:30.338Z,35.72
2022-10-22T07:15:19.106Z,16.60
2022-10-22T07:18:01.320Z,19.55
2022-10-22T07:20:51.068Z,29.88
2022-10-22T07:23:41.046Z,22.88
2022-10-22T07:26:31.869Z,28.05
2022-10-22T07:29:23.069Z,20.70
2022-10-22T07:32:05.384Z,22.92
2022-10-22T07:34:54.050Z,24.60
2022-10-22T07:37:36.529Z,23.42
2022-10-22T07:40:25.076Z,21.55
2022-10-22T07:43:07.485Z,24.73
2022-10-22T07:45:56.231Z,22.35
2022-10-22T07:48:38.571Z,25.27
2022-10-22T07:51:27.047Z,30.65
2022-10-22T07:54:09.336Z,32.78
2022-10-22T07:56:58.040Z,28.38
2022-10-22T07:59:40.349Z,32.78
2022-10-22T08:02:29.042Z,36.95
2022-10-22T08:05:11.393Z,41.45
2022-10-22T08:07:59.970Z,50.25
2022-10-22T08:10:49.071Z,33.72
2022-10-22T08:13:31.964Z,34.22
2022-10-22T08:16:20.970Z,39.45
2022-10-22T08:19:09.982Z,38.92
2022-10-22T08:31:08.181Z,43.10
2022-10-22T08:34:16.970Z,32.10
2022-10-22T08:37:22.075Z,35.90
2022-10-22T08:40:04.395Z,38.83
2022-10-22T08:43:02.970Z,27.02
2022-10-22T08:46:29.953Z,28.98
2022-10-22T08:49:29.057Z,21.95
2022-10-22T08:52:12.468Z,29.90
2022-10-22T08:55:07.049Z,26.70
2022-10-22T08:58:05.048Z,30.95
2022-10-22T09:01:08.041Z,45.63
2022-10-22T09:04:33.047Z,28.27
2022-10-22T09:07:15.442Z,28.60
2022-10-22T09:10:09.057Z,26.17
2022-10-22T09:12:58.051Z,31.15
2022-10-22T09:15:41.670Z,36.08
2022-10-22T09:19:02.970Z,30.10
2022-10-22T09:22:00.303Z,33.58
2022-10-22T09:24:53.058Z,38.78
2022-10-22T09:27:38.620Z,39.80
2022-10-22T09:30:30.960Z,42.20
2022-10-22T09:33:18.179Z,25.00
2022-10-22T09:36:11.124Z,30.58
2022-10-22T09:38:56.897Z,26.20
2022-10-22T09:41:46.114Z,25.95
2022-10-22T09:44:29.373Z,32.45
2022-10-22T09:48:02.565Z,26.10
2022-10-22T09:50:54.375Z,33.65
2022-10-22T09:53:50.050Z,28.70
2022-10-22T09:56:56.507Z,30.45
2022-10-22T09:59:50.965Z,26.27
2022-10-22T10:02:43.015Z,30.20
2022-10-22T10:05:42.323Z,27.27
2022-10-22T10:08:26.009Z,23.75
2022-10-22T10:11:28.961Z,24.35
2022-10-22T10:14:39.991Z,23.73
2022-10-22T10:17:47.479Z,24.27
2022-10-22T10:20:49.970Z,27.08
2022-10-22T10:23:41.442Z,27.23
2022-10-22T10:26:29.041Z,20.60
2022-10-22T10:29:26.466Z,31.08
2022-10-22T10:32:23.618Z,29.25
2022-10-22T10:35:35.967Z,17.73
2022-10-22T10:38:49.521Z,19.55
2022-10-22T10:42:04.962Z,20.33
2022-10-22T10:44:56.363Z,21.17
2022-10-22T10:48:13.082Z,18.10
2022-10-22T10:51:31.027Z,22.63
2022-10-22T10:54:27.041Z,20.77
2022-10-22T10:57:58.048Z,20.00
2022-10-22T11:01:01.341Z,24.25
2022-10-22T11:03:50.043Z,21.80
2022-10-22T11:06:41.411Z,38.13
2022-10-22T11:09:26.061Z,25.60
2022-10-22T11:12:25.211Z,28.20
2022-10-22T11:15:37.976Z,26.48
2022-10-22T11:18:38.350Z,23.35
2022-10-22T11:21:40.990Z,20.80
2022-10-22T11:24:38.329Z,34.33
2022-10-22T11:27:41.269Z,31.02
2022-10-22T11:30:31.558Z,24.75
2022-10-22T11:33:24.062Z,30.77
2022-10-22T11:36:22.021Z,27.30
2022-10-22T11:39:13.056Z,23.27
2022-10-22T11:41:56.343Z,26.67
2022-10-22T11:44:57.054Z,30.85
2022-10-22T11:48:15.339Z,43.75
2022-10-22T11:51:09.953Z,35.55
2022-10-22T11:53:52.940Z,34.00
2022-10-22T11:56:48.043Z,34.63
2022-10-22T11:59:47.374Z,27.85
2022-10-22T12:02:53.046Z,33.47
2022-10-22T12:05:35.989Z,47.60
2022-10-22T12:08:29.968Z,43.10
2022-10-22T12:12:01.131Z,36.15
2022-10-22T12:15:00.409Z,39.67
2022-10-22T12:17:49.052Z,40.75
2022-10-22T12:20:31.537Z,39.25
2022-10-22T12:23:20.973Z,35.60
2022-10-22T12:26:12.325Z,47.30
2022-10-22T12:28:54.056Z,40.63
2022-10-22T12:31:41.482Z,49.38
2022-10-22T12:34:37.060Z,47.00
2022-10-22T12:37:27.335Z,53.25
2022-10-22T12:40:09.955Z,37.65
2022-10-22T12:43:02.396Z,44.08
2022-10-22T12:45:45.056Z,52.85
2022-10-22T12:48:44.979Z,43.45
2022-10-22T12:51:28.389Z,46.50
2022-10-22T12:54:26.980Z,52.45
2022-10-22T12:57:10.337Z,53.72
2022-10-22T13:02:54.950Z,41.72
2022-10-22T13:05:47.045Z,51.97
2022-10-22T13:08:34.438Z,45.45
2022-10-22T13:11:29.053Z,49.92
2022-10-22T13:14:26.406Z,52.70
2022-10-22T13:17:50.050Z,54.00
2022-10-22T13:20:40.093Z,41.67
2022-10-22T13:23:31.508Z,42.50
2022-10-22T13:26:24.057Z,46.60
2022-10-22T13:29:08.382Z,46.22
2022-10-22T13:31:59.964Z,38.13
2022-10-22T13:34:48.931Z,35.00
2022-10-22T13:37:40.750Z,32.20
2022-10-22T13:40:24.042Z,45.05
2022-10-22T13:43:06.288Z,47.47
2022-10-22T13:45:55.098Z,44.20
2022-10-22T13:48:44.338Z,55.33
2022-10-22T13:51:44.042Z,58.10
2022-10-22T13:54:26.690Z,46.78
2022-10-22T13:57:16.058Z,61.22
2022-10-22T14:00:05.032Z,50.13
2022-10-22T14:02:48.582Z,58.95
2022-10-22T14:05:38.042Z,66.30
2022-10-22T14:08:23.486Z,70.57
2022-10-22T14:11:12.062Z,59.67
2022-10-22T14:13:54.433Z,63.45
2022-10-22T14:16:43.007Z,76.57
2022-10-22T14:19:33.047Z,70.05
2022-10-22T14:22:24.072Z,64.88
2022-10-22T14:25:06.376Z,64.30
2022-10-22T14:27:54.952Z,73.65
2022-10-22T14:30:44.137Z,78.13
2022-10-22T14:33:35.116Z,65.10
2022-10-22T14:36:28.077Z,74.47
2022-10-22T14:39:16.406Z,77.63
2022-10-22T14:41:57.961Z,74.07
2022-10-22T14:44:48.410Z,61.90
2022-10-22T14:47:31.037Z,76.43
2022-10-22T14:50:20.337Z,96.78
2022-10-22T14:53:02.317Z,74.47
2022-10-22T14:55:53.047Z,62.55
2022-10-22T14:58:35.383Z,75.60
2022-10-22T15:01:24.063Z,74.95
2022-10-22T15:04:06.486Z,69.60
2022-10-22T15:06:55.041Z,82.80
2022-10-22T15:09:45.042Z,73.10
2022-10-22T15:12:34.021Z,74.18
2022-10-22T15:15:17.334Z,72.13
2022-10-22T15:18:08.049Z,76.03
2022-10-22T15:20:50.463Z,65.45
2022-10-22T15:23:39.030Z,69.80
2022-10-22T15:26:28.963Z,67.97
2022-10-22T15:29:24.053Z,73.63
2022-10-22T15:32:13.301Z,65.80
2022-10-22T15:34:56.076Z,75.95
2022-10-22T15:37:44.352Z,69.50
2022-10-22T15:40:25.980Z,72.30
2022-10-22T15:43:14.337Z,62.78
2022-10-22T15:46:18.945Z,92.43
2022-10-22T15:49:08.476Z,73.50
2022-10-22T15:51:50.038Z,66.25
2022-10-22T15:54:38.948Z,66.40
2022-10-22T15:57:21.394Z,71.35
2022-10-22T16:00:09.957Z,68.68
2022-10-22T16:02:52.451Z,70.85
2022-10-22T16:05:40.934Z,75.25
2022-10-22T16:08:24.479Z,64.82
2022-10-22T16:11:13.025Z,68.20
2022-10-22T16:14:03.048Z,62.58
2022-10-22T16:16:54.355Z,63.67
2022-10-22T16:19:37.463Z,61.05
2022-10-22T16:22:25.300Z,64.05
2022-10-22T16:25:07.083Z,60.50
2022-10-22T16:27:53.198Z,55.17
2022-10-22T16:30:42.031Z,63.85
2022-10-22T16:33:41.134Z,68.53
2022-10-22T16:36:40.087Z,72.25
2022-10-22T16:39:22.253Z,69.20
2022-10-22T16:42:10.927Z,70.50
2022-10-22T16:45:00.018Z,63.80
2022-10-22T16:47:50.068Z,68.32
2022-10-22T16:50:39.362Z,67.45
2022-10-22T16:53:22.067Z,74.97
2022-10-22T16:56:04.352Z,67.18
2022-10-22T16:58:54.036Z,69.97
2022-10-22T17:01:43.143Z,73.97
2022-10-22T17:04:25.511Z,71.70
2022-10-22T17:07:14.021Z,67.65
2022-10-22T17:10:03.031Z,76.38
2022-10-22T17:12:45.342Z,75.30
2022-10-22T17:15:34.045Z,76.25
2022-10-22T17:18:16.560Z,68.45
2022-10-22T17:21:05.941Z,65.68
2022-10-22T17:23:56.024Z,66.68
2022-10-22T17:26:38.569Z,60.13
2022-10-22T17:29:30.064Z,61.42
2022-10-22T17:32:12.400Z,67.53
2022-10-22T17:35:01.104Z,63.10
2022-10-22T17:37:49.355Z,72.05
2022-10-22T17:40:32.019Z,65.28
2022-10-22T17:43:20.316Z,65.95
2022-10-22T17:46:12.036Z,73.50
2022-10-22T17:49:00.246Z,80.70
2022-10-22T17:51:49.088Z,65.57
2022-10-22T17:54:38.470Z,69.97
2022-10-22T17:57:21.018Z,72.88
2022-10-22T18:00:10.526Z,71.32
2022-10-22T18:02:53.007Z,74.45
2022-10-22T18:05:35.426Z,82.93
2022-10-22T18:08:24.002Z,75.53
2022-10-22T18:11:17.321Z,68.60
2022-10-22T18:14:00.022Z,74.73
2022-10-22T18:16:49.457Z,71.15
2022-10-22T18:19:32.018Z,76.35
2022-10-22T18:22:27.020Z,60.53
2022-10-22T18:25:17.509Z,78.15
2022-10-22T18:27:59.003Z,70.65
2022-10-22T18:30:51.046Z,70.25
2022-10-22T18:33:40.054Z,67.80
2022-10-22T18:36:32.030Z,78.53
2022-10-22T18:39:14.551Z,74.88
2022-10-22T18:42:03.052Z,73.25
2022-10-22T18:44:45.454Z,74.65
2022-10-22T18:47:34.003Z,74.43
2022-10-22T18:50:17.291Z,70.20
2022-10-22T18:53:06.019Z,87.00
2022-10-22T18:55:48.447Z,74.85
2022-10-22T18:58:37.005Z,74.28
2022-10-22T19:01:29.084Z,71.10
2022-10-22T19:04:18.028Z,75.75
2022-10-22T19:07:00.490Z,78.55
2022-10-22T19:09:50.026Z,89.22
2022-10-22T19:12:32.497Z,84.38
2022-10-22T19:15:21.086Z,74.40
2022-10-22T19:18:03.478Z,69.30
2022-10-22T19:20:54.003Z,78.35
2022-10-22T19:23:37.531Z,72.38
2022-10-22T19:26:29.011Z,75.05
2022-10-22T19:29:12.357Z,84.20
2022-10-22T19:32:01.030Z,77.70
2022-10-22T19:34:44.144Z,79.85
2022-10-22T19:37:33.001Z,77.32
2022-10-22T19:40:16.510Z,78.60
2022-10-22T19:43:05.004Z,78.90
2022-10-22T19:45:50.423Z,75.50
2022-10-22T19:48:39.071Z,68.70
2022-10-22T19:51:27.347Z,75.22
2022-10-22T19:54:20.034Z,84.20
2022-10-22T19:59:52.999Z,79.38
2022-10-22T20:02:42.045Z,86.13
2022-10-22T20:05:31.293Z,81.25
2022-10-22T20:08:13.913Z,93.30
2022-10-22T20:11:02.917Z,79.55
2022-10-22T20:13:49.723Z,85.45
2022-10-22T20:16:40.992Z,79.25
2022-10-22T20:19:33.995Z,85.88
2022-10-22T20:22:17.986Z,92.40
2022-10-22T20:25:07.988Z,70.30
2022-10-22T20:27:56.309Z,92.25
2022-10-22T20:30:39.007Z,82.57
2022-10-22T20:33:23.175Z,87.70
2022-10-22T20:36:16.989Z,83.60
2022-10-22T20:39:07.223Z,82.38
2022-10-22T20:41:55.989Z,83.72
2022-10-22T20:44:44.981Z,80.53
2022-10-22T20:47:34.317Z,73.97
2022-10-22T20:50:38.998Z,85.28
2022-10-22T20:53:28.993Z,78.78
2022-10-22T20:56:12.050Z,83.25
2022-10-22T20:59:12.002Z,99.93
2022-10-22T21:02:01.995Z,91.63
2022-10-22T21:04:45.729Z,82.07
2022-10-22T21:07:28.005Z,97.15
2022-10-22T21:10:17.407Z,85.30
2022-10-22T21:12:59.030Z,74.93
2022-10-22T21:15:41.404Z,85.95
2022-10-22T21:18:30.008Z,81.18
2022-10-22T21:21:20.148Z,77.60
2022-10-22T21:24:02.897Z,83.72
2022-10-22T21:26:45.896Z,78.05
2022-10-22T21:29:35.035Z,75.70
2022-10-22T21:32:23.292Z,78.25
2022-10-22T21:35:04.885Z,90.20
2022-10-22T21:37:53.310Z,80.85
2022-10-22T21:40:35.912Z,82.05
2022-10-22T21:43:19.444Z,83.10
2022-10-22T21:46:23.931Z,70.13
2022-10-22T21:49:06.627Z,84.55
2022-10-22T21:51:58.979Z,78.95
2022-10-22T21:54:47.284Z,76.32
2022-10-22T21:57:28.904Z,82.40
2022-10-22T22:00:19.250Z,86.95
2022-10-22T22:03:01.022Z,81.85
2022-10-22T22:05:51.495Z,75.78
2022-10-22T22:08:35.122Z,72.88
2022-10-22T22:11:27.266Z,76.47
2022-10-22T22:14:08.984Z,74.05
2022-10-22T22:16:51.246Z,74.82
2022-10-22T22:19:39.986Z,82.07
2022-10-22T22:22:28.970Z,84.90
2022-10-22T22:25:11.899Z,74.80
2022-10-22T22:28:00.883Z,78.82
2022-10-22T22:30:49.920Z,71.78
2022-10-22T22:33:38.966Z,72.68
2022-10-22T22:36:27.246Z,87.60
2022-10-22T22:39:09.897Z,76.97
2022-10-22T22:42:05.972Z,87.32
2022-10-22T22:44:54.916Z,81.43
2022-10-22T22:47:38.278Z,91.45
2022-10-22T22:50:26.995Z,78.57
2022-10-22T22:53:09.281Z,85.50
2022-10-22T22:55:57.953Z,82.88
2022-10-22T22:58:47.892Z,87.93
2022-10-22T23:01:39.293Z,81.47
2022-10-22T23:04:29.897Z,82.60
2022-10-22T23:07:18.236Z,84.68
2022-10-22T23:10:00.032Z,81.07
2022-10-22T23:12:49.232Z,94.75
2022-10-22T23:15:31.022Z,89.53
2022-10-22T23:18:20.311Z,90.10
2022-10-22T23:21:02.971Z,87.00
2022-10-22T23:23:50.395Z,97.80
2022-10-22T23:26:42.027Z,87.50
2022-10-22T23:29:30.274Z,94.90
2022-10-22T23:32:24.984Z,92.38
2022-10-22T23:35:13.981Z,86.60
2022-10-22T23:38:08.973Z,92.47
2022-10-22T23:40:58.732Z,100.88
2022-10-22T23:43:49.014Z,109.15
2022-10-22T23:46:39.600Z,106.22
2022-10-22T23:49:21.991Z,98.43
2022-10-22T23:52:04.193Z,92.95
2022-10-22T23:54:53.028Z,88.57
2022-10-22T23:57:35.337Z,95.00
